Time;durP1;ratioP1;P1;durP2;ratioP2;P2;SDS_P1;SDS_P2;PMS_P1;PMS_P2;Temp;Humidity;BMP_temperature;BMP_pressure;BME280_temperature;BME280_humidity;BME280_pressure;Samples;Min_cycle;Max_cycle;Signal;HPM_P1;HPM_P2
2021/06/29 05:13:07;;;;;;;3.90;3.12;;;;;;;39.69;28.78;100403.05;1783946;79;21843;-71
2021/06/29 05:15:40;;;;;;;5.42;3.25;;;;;;;40.34;27.53;100401.31;1784256;80;21209;-72
2021/06/29 05:18:13;;;;;;;4.28;3.25;;;;;;;40.88;26.77;100399.02;1783659;80;21933;-71
2021/06/29 05:20:46;;;;;;;6.10;3.22;;;;;;;41.49;25.79;100404.24;1784103;80;21283;-71
2021/06/29 05:23:18;;;;;;;3.75;3.20;;;;;;;41.97;25.18;100409.66;1783503;80;21307;-73
2021/06/29 05:25:51;;;;;;;6.87;4.22;;;;;;;42.32;24.58;100399.07;1784086;80;21628;-71
2021/06/29 05:28:24;;;;;;;21.50;4.70;;;;;;;42.67;24.16;100398.84;1783392;80;21288;-70
2021/06/29 05:30:57;;;;;;;6.45;3.52;;;;;;;42.98;23.62;100397.66;1783570;80;21277;-70
2021/06/29 05:33:30;;;;;;;11.55;3.75;;;;;;;43.31;23.23;100402.95;1783665;80;21838;-71
2021/06/29 05:36:03;;;;;;;9.00;3.58;;;;;;;43.55;22.95;100408.35;1784200;80;21287;-69
2021/06/29 05:38:36;;;;;;;4.28;3.22;;;;;;;43.69;22.74;100401.06;1783474;80;21313;-69
2021/06/29 05:41:10;;;;;;;5.47;3.20;;;;;;;44.00;22.44;100396.95;1747869;82;21314;-69
2021/06/29 05:47:39;;;;;;;34.05;4.10;;;;;;;43.81;22.40;100399.61;1747883;81;21131;-69
2021/06/29 05:50:13;;;;;;;12.53;3.30;;;;;;;44.09;21.59;100397.02;1733698;82;21193;-70
2021/06/29 05:52:47;;;;;;;4.53;2.90;;;;;;;44.42;21.09;100395.27;1745097;82;21181;-69
2021/06/29 05:55:20;;;;;;;9.78;3.12;;;;;;;44.39;20.95;100394.59;1745700;82;21577;-69
2021/06/29 05:57:54;;;;;;;3.35;3.00;;;;;;;43.80;21.34;100396.64;1742796;82;21288;-69
2021/06/29 06:00:27;;;;;;;4.55;2.70;;;;;;;43.48;21.39;100400.70;1747213;82;21291;-70
2021/06/29 06:03:00;;;;;;;3.52;2.72;;;;;;;43.15;21.50;100397.94;1747167;82;21291;-73
2021/06/29 06:09:42;;;;;;;4.90;2.67;;;;;;;42.75;22.43;100401.45;1736337;82;21311;-71
2021/06/29 06:12:15;;;;;;;6.15;3.60;;;;;;;43.40;21.64;100396.13;1733986;82;21181;-71
2021/06/29 06:14:48;;;;;;;6.60;3.33;;;;;;;44.00;20.98;100390.86;1732648;82;21319;-68
2021/06/29 06:21:30;;;;;;;16.27;3.52;;;;;;;43.67;21.38;100393.13;1733475;82;21677;-68
2021/06/29 06:24:03;;;;;;;4.37;3.45;;;;;;;43.90;20.87;100389.23;1732741;83;21375;-69
2021/06/29 06:26:36;;;;;;;4.78;3.50;;;;;;;43.48;21.43;100405.41;1733270;83;21848;-69
2021/06/29 06:29:09;;;;;;;15.48;3.37;;;;;;;42.67;21.91;100393.33;1732484;83;21312;-68
2021/06/29 06:31:42;;;;;;;5.03;3.17;;;;;;;41.92;22.59;100398.31;1733232;82;21241;-68
2021/06/29 06:38:24;;;;;;;3.58;2.87;;;;;;;41.54;23.04;100396.35;1733321;82;21232;-69
2021/06/29 06:41:00;;;;;;;3.70;2.60;;;;;;;41.91;22.58;100395.91;1733292;83;21300;-70
2021/06/29 06:43:53;;;;;;;5.80;3.02;;;;;;;42.57;22.11;100396.55;1733126;83;21324;-69
2021/06/29 06:46:26;;;;;;;5.12;2.80;;;;;;;43.30;21.46;100395.85;1731122;83;21198;-69
2021/06/29 06:48:59;;;;;;;8.98;3.40;;;;;;;43.08;21.00;100399.11;1731001;82;21212;-69
2021/06/29 06:51:33;;;;;;;5.80;2.85;;;;;;;42.42;21.68;100392.52;1731302;82;21339;-72
2021/06/29 06:54:06;;;;;;;3.47;2.90;;;;;;;41.51;22.63;100395.68;1732979;83;21848;-69
2021/06/29 06:56:53;;;;;;;6.10;3.42;;;;;;;40.89;23.49;100395.70;1733259;83;21178;-67
2021/06/29 06:59:34;;;;;;;9.58;3.45;;;;;;;40.16;24.64;100392.91;1730488;82;21458;-70
2021/06/29 07:02:08;;;;;;;3.92;2.60;;;;;;;40.73;24.43;100399.56;1731922;83;21316;-72
2021/06/29 07:04:42;;;;;;;3.92;3.15;;;;;;;41.43;23.77;100394.62;1730674;83;21212;-70
2021/06/29 07:10:53;;;;;;;2.83;2.52;;;;;;;43.29;21.20;100397.80;1766190;81;21196;-70
2021/06/29 07:13:29;;;;;;;6.12;2.62;;;;;;;44.34;20.02;100387.97;1750957;82;21870;-71
2021/06/29 07:16:00;;;;;;;4.15;2.55;;;;;;;44.99;19.44;100392.43;1751040;82;21744;-70
2021/06/29 07:18:33;;;;;;;4.78;2.65;;;;;;;44.82;19.58;100391.67;1719635;83;21232;-71
2021/06/29 07:21:07;;;;;;;2.67;2.25;;;;;;;44.21;19.99;100389.82;1749926;82;21180;-69
2021/06/29 07:23:40;;;;;;;8.58;2.60;;;;;;;43.34;20.72;100392.04;1750675;82;21263;-70
2021/06/29 07:26:16;;;;;;;4.33;2.50;;;;;;;42.87;20.81;100393.16;1717511;83;21180;-70
2021/06/29 07:28:49;;;;;;;3.77;2.37;;;;;;;42.11;21.65;100400.53;1751035;82;21369;-69
2021/06/29 07:31:22;;;;;;;6.25;2.35;;;;;;;41.33;22.52;100404.65;1749374;82;21918;-69
2021/06/29 07:33:56;;;;;;;6.83;2.62;;;;;;;40.57;23.34;100404.59;1719463;83;21318;-68
2021/06/29 07:40:39;;;;;;;9.68;2.62;;;;;;;38.96;25.35;100410.81;1747423;82;22091;-70
2021/06/29 07:43:12;;;;;;;4.62;2.33;;;;;;;38.31;26.14;100407.50;1719648;83;21350;-69
2021/06/29 07:45:46;;;;;;;4.85;2.12;;;;;;;38.85;25.83;100399.95;1747502;82;21216;-68
2021/06/29 07:48:19;;;;;;;7.67;2.08;;;;;;;39.82;24.67;100396.55;1748647;82;21447;-68
2021/06/29 07:50:54;;;;;;;2.70;2.12;;;;;;;40.95;23.23;100392.42;1716389;83;21259;-68
2021/06/29 07:53:27;;;;;;;4.37;1.82;;;;;;;41.84;22.33;100385.48;1751013;82;21814;-67
2021/06/29 07:56:01;;;;;;;9.38;2.62;;;;;;;42.69;21.09;100383.58;1716278;83;21476;-67
2021/06/29 07:58:34;;;;;;;5.70;2.10;;;;;;;43.51;20.59;100385.41;1749117;82;21311;-68
2021/06/29 08:01:10;;;;;;;3.10;1.72;;;;;;;44.06;19.85;100382.55;1747316;82;21918;-69
2021/06/29 08:03:44;;;;;;;1.80;1.65;;;;;;;44.31;19.40;100377.64;1717582;83;21252;-68
2021/06/29 08:06:19;;;;;;;4.22;1.87;;;;;;;44.64;18.95;100375.27;1747130;82;22029;-68
2021/06/29 08:08:52;;;;;;;3.15;1.98;;;;;;;44.41;19.38;100381.81;1725448;83;21383;-68
2021/06/29 08:11:25;;;;;;;2.40;1.90;;;;;;;43.66;20.08;100385.22;1737636;82;21235;-68
2021/06/29 08:13:59;;;;;;;2.25;1.85;;;;;;;42.88;20.90;100381.00;1717360;83;21492;-69
2021/06/29 08:16:32;;;;;;;5.17;2.02;;;;;;;42.72;21.05;100378.76;1716020;83;21476;-69
2021/06/29 08:19:06;;;;;;;5.35;2.10;;;;;;;42.97;20.94;100377.35;1719594;83;21326;-68
2021/06/29 08:21:39;;;;;;;2.85;2.00;;;;;;;43.42;20.49;100384.77;1716070;83;21220;-70
2021/06/29 08:24:12;;;;;;;2.85;1.80;;;;;;;43.77;19.51;100374.71;1690773;83;22037;-66
2021/06/29 08:26:45;;;;;;;5.90;1.80;;;;;;;43.89;19.41;100366.35;1716018;83;21489;-68
2021/06/29 08:29:18;;;;;;;2.22;2.02;;;;;;;43.83;19.42;100366.98;1717348;83;21315;-68
2021/06/29 08:31:52;;;;;;;4.03;2.12;;;;;;;43.67;20.03;100364.73;1716092;83;21350;-67
2021/06/29 08:34:25;;;;;;;8.60;2.10;;;;;;;43.75;20.08;100361.05;1717267;83;21307;-67
2021/06/29 08:36:58;;;;;;;1.55;1.45;;;;;;;43.96;19.89;100360.20;1716250;83;21172;-67
2021/06/29 08:43:42;;;;;;;2.00;1.80;;;;;;;44.16;18.13;100366.84;1717622;83;21433;-66
2021/06/29 08:46:17;;;;;;;2.50;1.60;;;;;;;44.37;18.22;100364.38;1716616;83;22033;-67
2021/06/29 08:48:50;;;;;;;2.47;1.87;;;;;;;44.53;17.49;100355.49;1717371;83;22011;-67
2021/06/29 08:51:26;;;;;;;2.60;2.15;;;;;;;44.48;17.97;100354.39;1712678;83;21335;-65
2021/06/29 08:53:59;;;;;;;2.35;1.92;;;;;;;44.51;18.46;100346.20;1717385;83;21314;-66
2021/06/29 08:56:39;;;;;;;4.00;2.12;;;;;;;44.55;18.20;100349.83;1716664;83;21339;-67
2021/06/29 08:59:13;;;;;;;3.70;1.60;;;;;;;44.31;17.89;100350.03;1719500;83;21327;-66
2021/06/29 09:01:47;;;;;;;8.70;2.62;;;;;;;43.80;17.46;100350.56;1715670;83;22156;-67
2021/06/29 09:04:50;;;;;;;4.12;2.33;;;;;;;43.50;18.42;100347.38;1717194;83;21370;-67
2021/06/29 09:07:29;;;;;;;3.17;2.27;;;;;;;43.17;19.17;100355.68;1718375;83;21628;-66
2021/06/29 09:10:06;;;;;;;1.90;1.80;;;;;;;42.61;19.37;100347.33;1736362;82;21193;-67
2021/06/29 09:12:51;;;;;;;6.78;3.20;;;;;;;41.72;20.38;100355.22;1704028;83;21276;-67
2021/06/29 09:15:32;;;;;;;8.93;3.80;;;;;;;40.76;22.40;100351.43;1701312;84;21603;-66
2021/06/29 09:18:15;;;;;;;8.13;3.75;;;;;;;39.81;24.17;100348.91;1701226;84;21188;-65
2021/06/29 09:21:00;;;;;;;7.40;3.55;;;;;;;38.97;25.56;100346.74;1701127;84;21383;-67
2021/06/29 09:23:42;;;;;;;4.90;3.22;;;;;;;38.31;26.25;100350.66;1701312;84;21383;-67
2021/06/29 09:30:46;;;;;;;3.50;2.90;;;;;;;37.59;27.42;100342.69;1701733;84;21145;-66
2021/06/29 09:33:22;;;;;;;5.47;3.35;;;;;;;37.11;27.97;100348.54;1704109;84;21308;-66
2021/06/29 09:36:03;;;;;;;5.22;3.20;;;;;;;36.78;28.45;100346.52;1703902;84;21421;-66
2021/06/29 09:38:39;;;;;;;8.48;3.75;;;;;;;36.44;28.98;100344.25;1703998;84;21308;-66
2021/06/29 09:41:22;;;;;;;7.28;3.30;;;;;;;36.11;29.98;100340.58;1703752;84;21327;-66
2021/06/29 09:44:11;;;;;;;12.50;4.12;;;;;;;35.73;30.42;100344.00;1703961;84;21209;-67
2021/06/29 09:46:45;;;;;;;10.60;4.05;;;;;;;35.35;30.88;100346.53;1703548;84;21335;-66
2021/06/29 09:49:20;;;;;;;7.47;3.65;;;;;;;35.02;34.70;100345.13;1704071;84;21300;-66
2021/06/29 09:51:53;;;;;;;6.00;3.30;;;;;;;34.82;35.85;100341.87;1704860;84;21340;-65
2021/06/29 09:54:35;;;;;;;6.80;3.58;;;;;;;34.54;35.23;100345.77;1703854;84;21375;-68
2021/06/29 09:57:25;;;;;;;5.35;3.15;;;;;;;34.39;34.76;100356.79;1700590;84;21604;-67
2021/06/29 09:59:59;;;;;;;6.05;3.33;;;;;;;34.48;34.29;100350.99;1717598;83;21213;-68
2021/06/29 10:06:47;;;;;;;6.60;2.95;;;;;;;35.08;32.15;100337.70;1704329;84;22004;-68
2021/06/29 10:09:19;;;;;;;4.17;3.08;;;;;;;35.31;31.21;100335.41;1703738;84;21324;-67
2021/06/29 10:11:56;;;;;;;7.72;3.10;;;;;;;35.41;31.12;100334.44;1704394;84;21653;-68
2021/06/29 10:14:29;;;;;;;4.25;2.62;;;;;;;35.53;30.57;100330.72;1724768;82;21319;-65
2021/06/29 10:17:09;;;;;;;4.40;2.98;;;;;;;35.63;30.38;100334.64;1734360;82;21213;-67
2021/06/29 10:19:59;;;;;;;9.03;3.60;;;;;;;35.60;30.79;100337.95;1734476;82;22012;-68
2021/06/29 10:26:33;;;;;;;8.10;3.12;;;;;;;34.84;31.53;100337.75;1735058;82;21939;-66
2021/06/29 10:33:16;;;;;;;5.87;2.85;;;;;;;33.48;33.61;100332.45;1734063;82;22404;-66
2021/06/29 10:35:49;;;;;;;7.20;2.42;;;;;;;33.10;33.83;100327.30;1734964;82;21192;-66
2021/06/29 10:38:23;;;;;;;2.62;2.40;;;;;;;33.02;33.96;100321.68;1733720;82;21471;-66
2021/06/29 10:40:58;;;;;;;5.53;2.40;;;;;;;33.02;33.88;100317.08;1734852;82;21181;-67
2021/06/29 10:43:37;;;;;;;2.50;2.30;;;;;;;33.16;33.47;100322.13;1733499;82;21256;-65
2021/06/29 10:46:33;;;;;;;3.60;3.30;;;;;;;33.19;33.38;100316.14;1735019;82;21244;-65
2021/06/29 10:49:29;;;;;;;3.10;2.35;;;;;;;33.19;33.29;100313.42;1733470;82;21208;-67
2021/06/29 10:52:05;;;;;;;2.02;1.82;;;;;;;33.24;33.11;100310.67;1734939;82;21501;-65
2021/06/29 10:54:49;;;;;;;4.72;2.22;;;;;;;33.11;32.22;100312.66;1734951;82;21201;-67
2021/06/29 10:57:28;;;;;;;3.22;2.10;;;;;;;32.97;32.50;100308.12;1734942;82;21979;-66
2021/06/29 11:04:11;;;;;;;31.27;19.55;;;;;;;32.96;33.02;100301.09;1733734;82;21470;-68
2021/06/29 11:06:47;;;;;;;14.78;8.68;;;;;;;32.82;31.89;100296.83;1683547;82;21344;-69
2021/06/29 11:13:47;;;;;;;3.75;1.70;;;;;;;32.88;31.41;100290.30;1736378;82;21304;-69
2021/06/29 11:16:54;;;;;;;2.12;1.40;;;;;;;32.82;31.23;100285.16;1732374;82;21447;-65
2021/06/29 11:20:07;;;;;;;3.05;1.77;;;;;;;32.69;31.88;100281.20;1731778;82;21514;-68
2021/06/29 11:23:05;;;;;;;6.83;1.70;;;;;;;32.53;32.97;100287.78;1732852;82;21326;-66
2021/06/29 11:25:51;;;;;;;7.30;1.95;;;;;;;32.37;33.75;100287.56;1733107;82;21636;-68
2021/06/29 11:28:37;;;;;;;5.62;1.80;;;;;;;32.28;33.36;100282.47;1729565;82;22184;-68
2021/06/29 11:31:30;;;;;;;3.50;1.80;;;;;;;32.18;33.97;100279.80;1733867;82;21205;-68
2021/06/29 11:34:10;;;;;;;2.50;1.70;;;;;;;32.06;34.68;100278.77;1732317;82;21263;-65
2021/06/29 11:36:45;;;;;;;1.67;1.50;;;;;;;31.99;35.00;100278.25;1733332;82;21368;-65
2021/06/29 11:39:22;;;;;;;1.90;1.55;;;;;;;32.03;35.02;100289.35;1732072;82;21346;-66
2021/06/29 11:42:05;;;;;;;2.75;1.70;;;;;;;32.16;34.90;100282.80;1733133;82;21303;-66
2021/06/29 11:44:46;;;;;;;6.47;2.10;;;;;;;32.32;34.89;100284.87;1731696;82;21973;-66
2021/06/29 11:47:22;;;;;;;2.72;1.72;;;;;;;32.54;34.41;100278.03;1735335;82;21295;-67
2021/06/29 11:50:04;;;;;;;2.60;1.75;;;;;;;32.78;34.13;100278.16;1731715;82;21538;-66
2021/06/29 11:52:34;;;;;;;3.20;1.87;;;;;;;32.95;33.97;100281.83;1733165;82;22064;-67
2021/06/29 11:55:17;;;;;;;3.47;2.40;;;;;;;33.02;33.84;100282.35;1731617;82;21225;-66
2021/06/29 11:57:56;;;;;;;4.00;1.70;;;;;;;33.04;33.51;100283.69;1733442;82;21365;-66
2021/06/29 12:00:32;;;;;;;3.72;1.90;;;;;;;32.98;33.80;100275.85;1732983;82;21478;-67
2021/06/29 12:03:22;;;;;;;2.95;1.98;;;;;;;32.92;33.81;100265.58;1733206;82;22140;-66
2021/06/29 12:05:56;;;;;;;4.97;1.82;;;;;;;32.95;33.38;100268.27;1733198;82;21192;-66
2021/06/29 12:08:32;;;;;;;1.60;1.40;;;;;;;33.05;33.06;100269.59;1732310;82;21335;-66
2021/06/29 12:11:06;;;;;;;3.15;1.70;;;;;;;33.15;32.76;100270.87;1733094;82;21197;-65
2021/06/29 12:13:40;;;;;;;3.30;2.17;;;;;;;33.24;32.46;100270.52;1733087;82;21402;-68
2021/06/29 12:16:19;;;;;;;1.90;1.72;;;;;;;33.33;31.96;100276.12;1733881;81;21197;-67
2021/06/29 12:18:54;;;;;;;2.05;1.70;;;;;;;33.36;31.84;100270.95;1719779;82;21202;-68
2021/06/29 12:21:26;;;;;;;6.30;2.08;;;;;;;33.35;31.85;100277.45;1703668;84;21413;-68
2021/06/29 12:28:15;;;;;;;3.12;1.90;;;;;;;33.30;32.18;100277.50;1704101;84;21139;-65
2021/06/29 12:30:53;;;;;;;1.82;1.70;;;;;;;33.21;32.58;100270.53;1687100;85;21482;-65
2021/06/29 12:33:34;;;;;;;3.80;1.80;;;;;;;33.19;32.81;100259.16;1687320;85;21208;-68
2021/06/29 12:36:14;;;;;;;2.90;2.17;;;;;;;33.17;33.17;100255.90;1688917;85;21842;-66
2021/06/29 12:38:52;;;;;;;2.75;1.90;;;;;;;33.11;34.30;100257.59;1685838;85;21205;-67
2021/06/29 12:41:29;;;;;;;5.10;1.72;;;;;;;33.03;34.31;100268.50;1701901;83;21239;-66
2021/06/29 12:44:09;;;;;;;6.42;2.00;;;;;;;32.92;33.91;100270.19;1710507;83;21302;-67
2021/06/29 12:46:44;;;;;;;3.62;2.08;;;;;;;32.78;33.97;100279.52;1710984;84;21175;-66
2021/06/29 12:49:24;;;;;;;5.70;2.65;;;;;;;32.62;34.28;100264.98;1710144;84;22080;-67
2021/06/29 12:52:14;;;;;;;3.47;2.15;;;;;;;32.45;34.64;100274.27;1710288;84;21211;-66
2021/06/29 12:54:50;;;;;;;5.47;1.85;;;;;;;32.32;35.34;100278.10;1709864;84;21220;-65
2021/06/29 12:57:21;;;;;;;3.10;1.80;;;;;;;32.13;35.61;100273.04;1710373;84;21196;-65
2021/06/29 12:59:54;;;;;;;6.08;2.47;;;;;;;31.91;36.47;100271.47;1710093;84;21223;-66
2021/06/29 13:02:29;;;;;;;;;;;;;;;31.75;37.95;100278.55;1712988;84;21180;-67
2021/06/29 13:05:08;;;;;;;10.70;3.00;;;;;;;31.56;38.99;100278.32;1709774;84;20199;-69
2021/06/29 13:07:40;;;;;;;6.45;2.62;;;;;;;31.39;40.89;100275.59;1712719;84;21323;-68
2021/06/29 13:10:15;;;;;;;10.38;2.17;;;;;;;31.22;43.54;100268.58;1709828;84;21278;-68
2021/06/29 13:12:50;;;;;;;7.62;2.83;;;;;;;31.05;44.65;100265.86;1710787;84;21191;-68
2021/06/29 13:15:29;;;;;;;5.58;2.62;;;;;;;30.86;45.53;100264.20;1709826;84;21200;-68
2021/06/29 13:18:03;;;;;;;6.40;3.02;;;;;;;30.71;46.17;100252.56;1710549;84;22168;-69
2021/06/29 13:20:38;;;;;;;32.30;12.70;;;;;;;30.55;46.39;100244.42;1702972;82;21174;-71
2021/06/29 13:23:12;;;;;;;48.58;18.27;;;;;;;30.38;47.06;100243.83;1677775;85;22060;-70
2021/06/29 13:25:45;;;;;;;15.63;7.97;;;;;;;30.27;46.03;100244.04;1677590;85;21190;-66
2021/06/29 13:28:21;;;;;;;4.75;2.80;;;;;;;30.21;46.37;100270.77;1659168;86;21170;-66
2021/06/29 13:31:04;;;;;;;3.80;1.72;;;;;;;30.09;45.12;100268.30;1681208;85;21217;-66
2021/06/29 13:33:39;;;;;;;5.75;1.70;;;;;;;29.89;42.77;100273.58;1647606;87;21583;-66
2021/06/29 13:36:12;;;;;;;3.20;1.57;;;;;;;29.65;41.69;100277.19;1697438;84;21342;-66
2021/06/29 13:38:58;;;;;;;;;;;;;;;29.47;39.89;100266.02;1661891;86;21218;-66
2021/06/29 13:41:39;;;;;;;9.30;5.92;;;;;;;29.31;37.80;100265.07;1697684;84;20232;-66
2021/06/29 13:44:15;;;;;;;16.50;11.22;;;;;;;29.13;37.65;100260.05;1692278;84;21216;-67
2021/06/29 13:46:50;;;;;;;13.90;7.05;;;;;;;28.91;37.47;100260.13;1675142;85;21301;-66
2021/06/29 13:49:24;;;;;;;7.83;2.70;;;;;;;28.70;37.59;100247.53;1653840;85;21186;-67
2021/06/29 13:52:10;;;;;;;3.83;1.47;;;;;;;28.60;37.86;100250.13;1646499;87;21395;-68
2021/06/29 13:54:43;;;;;;;5.60;1.80;;;;;;;28.63;38.29;100253.14;1700776;84;21319;-67
